sensor_id;sensor_type;location;lat;lon;timestamp;P1;durP1;ratioP1;P2;durP2;ratioP2
16354;SDS011;8287;51.644;8.494;2022-07-03T00:01:45;1.27;;;0.90;;
16354;SDS011;8287;51.644;8.494;2022-07-03T00:04:12;1.10;;;1.00;;
16354;SDS011;8287;51.644;8.494;2022-07-03T00:06:38;2.55;;;0.80;;
16354;SDS011;8287;51.644;8.494;2022-07-03T00:09:05;1.15;;;1.05;;
16354;SDS011;8287;51.644;8.494;2022-07-03T00:11:32;1.02;;;0.90;;
16354;SDS011;8287;51.644;8.494;2022-07-03T00:14:00;1.83;;;1.20;;
16354;SDS011;8287;51.644;8.494;2022-07-03T00:16:27;1.42;;;1.10;;
16354;SDS011;8287;51.644;8.494;2022-07-03T00:18:54;2.10;;;1.00;;
16354;SDS011;8287;51.644;8.494;2022-07-03T00:21:22;0.88;;;0.85;;
16354;SDS011;8287;51.644;8.494;2022-07-03T00:23:52;1.15;;;1.13;;
16354;SDS011;8287;51.644;8.494;2022-07-03T00:26:21;2.83;;;1.38;;
16354;SDS011;8287;51.644;8.494;2022-07-03T00:28:50;2.78;;;1.35;;
16354;SDS011;8287;51.644;8.494;2022-07-03T00:31:19;1.25;;;1.15;;
16354;SDS011;8287;51.644;8.494;2022-07-03T00:33:45;1.10;;;0.98;;
16354;SDS011;8287;51.644;8.494;2022-07-03T00:36:12;3.38;;;1.20;;
16354;SDS011;8287;51.644;8.494;2022-07-03T00:38:39;4.13;;;1.13;;
16354;SDS011;8287;51.644;8.494;2022-07-03T00:41:06;3.30;;;1.20;;
16354;SDS011;8287;51.644;8.494;2022-07-03T00:43:33;2.45;;;1.20;;
16354;SDS011;8287;51.644;8.494;2022-07-03T00:46:03;1.08;;;0.98;;
16354;SDS011;8287;51.644;8.494;2022-07-03T00:48:35;3.72;;;1.08;;
16354;SDS011;8287;51.644;8.494;2022-07-03T00:51:03;1.38;;;0.90;;
16354;SDS011;8287;51.644;8.494;2022-07-03T00:53:32;1.20;;;1.10;;
16354;SDS011;8287;51.644;8.494;2022-07-03T00:56:02;0.82;;;0.82;;
16354;SDS011;8287;51.644;8.494;2022-07-03T00:58:30;1.00;;;0.90;;
16354;SDS011;8287;51.644;8.494;2022-07-03T01:00:59;0.70;;;0.70;;
16354;SDS011;8287;51.644;8.494;2022-07-03T01:03:26;1.70;;;1.20;;
16354;SDS011;8287;51.644;8.494;2022-07-03T01:05:55;0.90;;;0.90;;
16354;SDS011;8287;51.644;8.494;2022-07-03T01:08:32;1.17;;;0.88;;
16354;SDS011;8287;51.644;8.494;2022-07-03T01:11:03;0.80;;;0.80;;
16354;SDS011;8287;51.644;8.494;2022-07-03T01:13:38;1.55;;;0.82;;
16354;SDS011;8287;51.644;8.494;2022-07-03T01:16:15;0.65;;;0.65;;
16354;SDS011;8287;51.644;8.494;2022-07-03T01:18:56;0.85;;;0.85;;
16354;SDS011;8287;51.644;8.494;2022-07-03T01:21:36;1.15;;;1.05;;
16354;SDS011;8287;51.644;8.494;2022-07-03T01:24:22;1.33;;;0.82;;
16354;SDS011;8287;51.644;8.494;2022-07-03T01:27:07;2.72;;;0.80;;
16354;SDS011;8287;51.644;8.494;2022-07-03T01:29:38;0.75;;;0.75;;
16354;SDS011;8287;51.644;8.494;2022-07-03T01:32:16;1.75;;;0.95;;
16354;SDS011;8287;51.644;8.494;2022-07-03T01:34:45;0.70;;;0.70;;
16354;SDS011;8287;51.644;8.494;2022-07-03T01:37:19;0.70;;;0.70;;
16354;SDS011;8287;51.644;8.494;2022-07-03T01:39:49;2.00;;;0.77;;
16354;SDS011;8287;51.644;8.494;2022-07-03T01:42:20;0.70;;;0.70;;
16354;SDS011;8287;51.644;8.494;2022-07-03T01:44:51;0.98;;;0.90;;
16354;SDS011;8287;51.644;8.494;2022-07-03T01:47:18;1.75;;;0.80;;
16354;SDS011;8287;51.644;8.494;2022-07-03T01:49:47;1.52;;;1.02;;
16354;SDS011;8287;51.644;8.494;2022-07-03T01:52:15;0.70;;;0.70;;
16354;SDS011;8287;51.644;8.494;2022-07-03T01:54:43;1.17;;;1.05;;
16354;SDS011;8287;51.644;8.494;2022-07-03T01:57:12;0.90;;;0.90;;
16354;SDS011;8287;51.644;8.494;2022-07-03T01:59:40;1.02;;;0.93;;
16354;SDS011;8287;51.644;8.494;2022-07-03T02:02:09;0.80;;;0.75;;
16354;SDS011;8287;51.644;8.494;2022-07-03T02:04:50;1.48;;;1.00;;
16354;SDS011;8287;51.644;8.494;2022-07-03T02:07:24;1.00;;;0.80;;
16354;SDS011;8287;51.644;8.494;2022-07-03T02:10:02;0.55;;;0.55;;
16354;SDS011;8287;51.644;8.494;2022-07-03T02:12:37;0.68;;;0.68;;
16354;SDS011;8287;51.644;8.494;2022-07-03T02:15:13;0.98;;;0.90;;
16354;SDS011;8287;51.644;8.494;2022-07-03T02:17:44;0.80;;;0.60;;
16354;SDS011;8287;51.644;8.494;2022-07-03T02:20:13;1.02;;;0.70;;
16354;SDS011;8287;51.644;8.494;2022-07-03T02:22:42;0.70;;;0.70;;
16354;SDS011;8287;51.644;8.494;2022-07-03T02:25:13;0.85;;;0.85;;
16354;SDS011;8287;51.644;8.494;2022-07-03T02:27:47;1.00;;;0.90;;
16354;SDS011;8287;51.644;8.494;2022-07-03T02:30:22;3.45;;;0.60;;
16354;SDS011;8287;51.644;8.494;2022-07-03T02:32:50;0.88;;;0.88;;
16354;SDS011;8287;51.644;8.494;2022-07-03T02:35:21;2.05;;;0.77;;
16354;SDS011;8287;51.644;8.494;2022-07-03T02:37:50;1.95;;;0.82;;
16354;SDS011;8287;51.644;8.494;2022-07-03T02:40:23;0.70;;;0.70;;
16354;SDS011;8287;51.644;8.494;2022-07-03T02:43:01;0.75;;;0.75;;
16354;SDS011;8287;51.644;8.494;2022-07-03T02:45:38;0.70;;;0.70;;
16354;SDS011;8287;51.644;8.494;2022-07-03T02:48:11;0.80;;;0.80;;
16354;SDS011;8287;51.644;8.494;2022-07-03T02:50:43;1.05;;;1.00;;
16354;SDS011;8287;51.644;8.494;2022-07-03T02:53:15;2.22;;;1.13;;
16354;SDS011;8287;51.644;8.494;2022-07-03T02:55:48;1.10;;;1.00;;
16354;SDS011;8287;51.644;8.494;2022-07-03T02:58:23;0.50;;;0.50;;
16354;SDS011;8287;51.644;8.494;2022-07-03T03:01:02;1.25;;;0.95;;
16354;SDS011;8287;51.644;8.494;2022-07-03T03:03:33;1.75;;;0.77;;
16354;SDS011;8287;51.644;8.494;2022-07-03T03:06:02;0.77;;;0.77;;
16354;SDS011;8287;51.644;8.494;2022-07-03T03:08:35;0.90;;;0.90;;
16354;SDS011;8287;51.644;8.494;2022-07-03T03:11:08;1.77;;;0.95;;
16354;SDS011;8287;51.644;8.494;2022-07-03T03:13:49;0.98;;;0.77;;
16354;SDS011;8287;51.644;8.494;2022-07-03T03:16:18;0.90;;;0.80;;
16354;SDS011;8287;51.644;8.494;2022-07-03T03:18:44;1.08;;;0.60;;
16354;SDS011;8287;51.644;8.494;2022-07-03T03:21:15;1.67;;;0.90;;
16354;SDS011;8287;51.644;8.494;2022-07-03T03:23:44;0.82;;;0.82;;
16354;SDS011;8287;51.644;8.494;2022-07-03T03:26:14;0.70;;;0.70;;
16354;SDS011;8287;51.644;8.494;2022-07-03T03:28:43;0.88;;;0.85;;
16354;SDS011;8287;51.644;8.494;2022-07-03T03:31:10;2.47;;;1.02;;
16354;SDS011;8287;51.644;8.494;2022-07-03T03:33:41;2.90;;;1.38;;
16354;SDS011;8287;51.644;8.494;2022-07-03T03:36:08;1.10;;;1.00;;
16354;SDS011;8287;51.644;8.494;2022-07-03T03:38:36;1.10;;;1.10;;
16354;SDS011;8287;51.644;8.494;2022-07-03T03:41:03;1.10;;;1.00;;
16354;SDS011;8287;51.644;8.494;2022-07-03T03:43:31;1.73;;;1.15;;
16354;SDS011;8287;51.644;8.494;2022-07-03T03:45:58;1.98;;;1.17;;
16354;SDS011;8287;51.644;8.494;2022-07-03T03:48:26;3.30;;;1.48;;
16354;SDS011;8287;51.644;8.494;2022-07-03T03:50:54;1.85;;;1.00;;
16354;SDS011;8287;51.644;8.494;2022-07-03T03:53:22;1.73;;;1.27;;
16354;SDS011;8287;51.644;8.494;2022-07-03T03:55:54;1.33;;;1.23;;
16354;SDS011;8287;51.644;8.494;2022-07-03T03:58:25;1.00;;;0.90;;
16354;SDS011;8287;51.644;8.494;2022-07-03T04:00:54;1.13;;;1.10;;
16354;SDS011;8287;51.644;8.494;2022-07-03T04:03:21;1.40;;;1.30;;
16354;SDS011;8287;51.644;8.494;2022-07-03T04:05:48;1.83;;;1.20;;
16354;SDS011;8287;51.644;8.494;2022-07-03T04:08:16;5.50;;;1.90;;
16354;SDS011;8287;51.644;8.494;2022-07-03T04:10:44;1.65;;;1.23;;
16354;SDS011;8287;51.644;8.494;2022-07-03T04:13:10;1.83;;;1.30;;
16354;SDS011;8287;51.644;8.494;2022-07-03T04:15:37;4.47;;;1.08;;
16354;SDS011;8287;51.644;8.494;2022-07-03T04:18:04;1.00;;;1.00;;
16354;SDS011;8287;51.644;8.494;2022-07-03T04:20:31;1.17;;;1.08;;
16354;SDS011;8287;51.644;8.494;2022-07-03T04:22:59;2.60;;;1.00;;
16354;SDS011;8287;51.644;8.494;2022-07-03T04:25:27;1.00;;;1.00;;
16354;SDS011;8287;51.644;8.494;2022-07-03T04:27:54;1.27;;;0.98;;
16354;SDS011;8287;51.644;8.494;2022-07-03T04:30:21;1.58;;;1.00;;
16354;SDS011;8287;51.644;8.494;2022-07-03T04:32:47;1.85;;;1.30;;
16354;SDS011;8287;51.644;8.494;2022-07-03T04:35:14;2.08;;;1.20;;
16354;SDS011;8287;51.644;8.494;2022-07-03T04:37:41;1.80;;;1.15;;
16354;SDS011;8287;51.644;8.494;2022-07-03T04:40:08;1.20;;;1.17;;
16354;SDS011;8287;51.644;8.494;2022-07-03T04:42:37;3.53;;;0.75;;
16354;SDS011;8287;51.644;8.494;2022-07-03T04:45:04;1.13;;;0.95;;
16354;SDS011;8287;51.644;8.494;2022-07-03T04:47:32;1.40;;;0.95;;
16354;SDS011;8287;51.644;8.494;2022-07-03T04:49:59;2.22;;;1.42;;
16354;SDS011;8287;51.644;8.494;2022-07-03T04:52:25;0.80;;;0.80;;
16354;SDS011;8287;51.644;8.494;2022-07-03T04:54:52;1.20;;;1.15;;
16354;SDS011;8287;51.644;8.494;2022-07-03T04:57:18;2.33;;;0.90;;
16354;SDS011;8287;51.644;8.494;2022-07-03T04:59:46;2.40;;;1.02;;
16354;SDS011;8287;51.644;8.494;2022-07-03T05:02:13;1.08;;;1.08;;
16354;SDS011;8287;51.644;8.494;2022-07-03T05:04:40;1.20;;;0.90;;
16354;SDS011;8287;51.644;8.494;2022-07-03T05:07:06;1.20;;;1.10;;
16354;SDS011;8287;51.644;8.494;2022-07-03T05:09:33;1.58;;;1.25;;
16354;SDS011;8287;51.644;8.494;2022-07-03T05:11:59;1.05;;;0.95;;
16354;SDS011;8287;51.644;8.494;2022-07-03T05:14:26;0.90;;;0.90;;
16354;SDS011;8287;51.644;8.494;2022-07-03T05:16:54;2.58;;;1.20;;
16354;SDS011;8287;51.644;8.494;2022-07-03T05:19:21;2.65;;;1.45;;
16354;SDS011;8287;51.644;8.494;2022-07-03T05:21:47;1.00;;;1.00;;
16354;SDS011;8287;51.644;8.494;2022-07-03T05:24:14;2.95;;;1.42;;
16354;SDS011;8287;51.644;8.494;2022-07-03T05:26:40;2.15;;;1.02;;
16354;SDS011;8287;51.644;8.494;2022-07-03T05:29:07;1.40;;;1.20;;
16354;SDS011;8287;51.644;8.494;2022-07-03T05:31:33;1.88;;;1.40;;
16354;SDS011;8287;51.644;8.494;2022-07-03T05:34:01;1.27;;;0.93;;
16354;SDS011;8287;51.644;8.494;2022-07-03T05:36:28;1.10;;;1.10;;
16354;SDS011;8287;51.644;8.494;2022-07-03T05:38:55;0.95;;;0.80;;
16354;SDS011;8287;51.644;8.494;2022-07-03T05:41:39;0.90;;;0.90;;
16354;SDS011;8287;51.644;8.494;2022-07-03T05:44:05;1.50;;;1.35;;
16354;SDS011;8287;51.644;8.494;2022-07-03T05:46:32;1.00;;;1.00;;
16354;SDS011;8287;51.644;8.494;2022-07-03T05:48:59;1.15;;;0.77;;
16354;SDS011;8287;51.644;8.494;2022-07-03T05:51:27;0.93;;;0.93;;
16354;SDS011;8287;51.644;8.494;2022-07-03T05:53:53;5.15;;;1.25;;
16354;SDS011;8287;51.644;8.494;2022-07-03T05:56:20;2.10;;;1.10;;
16354;SDS011;8287;51.644;8.494;2022-07-03T05:58:47;2.85;;;1.60;;
16354;SDS011;8287;51.644;8.494;2022-07-03T06:01:14;1.30;;;1.20;;
16354;SDS011;8287;51.644;8.494;2022-07-03T06:03:40;1.70;;;1.50;;
16354;SDS011;8287;51.644;8.494;2022-07-03T06:06:07;1.25;;;1.17;;
16354;SDS011;8287;51.644;8.494;2022-07-03T06:08:35;3.13;;;1.30;;
16354;SDS011;8287;51.644;8.494;2022-07-03T06:11:02;1.83;;;1.30;;
16354;SDS011;8287;51.644;8.494;2022-07-03T06:13:28;1.00;;;1.00;;
16354;SDS011;8287;51.644;8.494;2022-07-03T06:15:55;1.40;;;1.30;;
16354;SDS011;8287;51.644;8.494;2022-07-03T06:18:21;1.75;;;1.48;;
16354;SDS011;8287;51.644;8.494;2022-07-03T06:20:48;4.32;;;1.38;;
16354;SDS011;8287;51.644;8.494;2022-07-03T06:23:15;1.65;;;1.40;;
16354;SDS011;8287;51.644;8.494;2022-07-03T06:25:43;1.83;;;1.42;;
16354;SDS011;8287;51.644;8.494;2022-07-03T06:28:09;1.95;;;1.38;;
16354;SDS011;8287;51.644;8.494;2022-07-03T06:30:36;1.85;;;1.42;;
16354;SDS011;8287;51.644;8.494;2022-07-03T06:33:03;1.38;;;1.27;;
16354;SDS011;8287;51.644;8.494;2022-07-03T06:35:29;2.38;;;1.30;;
16354;SDS011;8287;51.644;8.494;2022-07-03T06:38:00;1.40;;;1.30;;
16354;SDS011;8287;51.644;8.494;2022-07-03T06:40:27;1.30;;;1.20;;
16354;SDS011;8287;51.644;8.494;2022-07-03T06:42:56;3.75;;;1.50;;
16354;SDS011;8287;51.644;8.494;2022-07-03T06:45:23;3.75;;;1.88;;
16354;SDS011;8287;51.644;8.494;2022-07-03T06:47:49;3.67;;;1.38;;
16354;SDS011;8287;51.644;8.494;2022-07-03T06:50:16;1.88;;;1.58;;
16354;SDS011;8287;51.644;8.494;2022-07-03T06:52:43;1.42;;;1.33;;
16354;SDS011;8287;51.644;8.494;2022-07-03T06:55:09;1.75;;;1.35;;
16354;SDS011;8287;51.644;8.494;2022-07-03T06:57:36;2.33;;;1.23;;
16354;SDS011;8287;51.644;8.494;2022-07-03T07:00:05;1.50;;;1.40;;
16354;SDS011;8287;51.644;8.494;2022-07-03T07:02:32;1.98;;;1.33;;
16354;SDS011;8287;51.644;8.494;2022-07-03T07:04:59;1.50;;;1.40;;
16354;SDS011;8287;51.644;8.494;2022-07-03T07:07:26;1.70;;;1.15;;
16354;SDS011;8287;51.644;8.494;2022-07-03T07:09:52;1.45;;;1.27;;
16354;SDS011;8287;51.644;8.494;2022-07-03T07:12:19;2.90;;;1.13;;
16354;SDS011;8287;51.644;8.494;2022-07-03T07:14:45;1.95;;;1.27;;
16354;SDS011;8287;51.644;8.494;2022-07-03T07:17:13;1.83;;;1.45;;
16354;SDS011;8287;51.644;8.494;2022-07-03T07:19:40;1.52;;;1.10;;
16354;SDS011;8287;51.644;8.494;2022-07-03T07:22:07;0.90;;;0.90;;
16354;SDS011;8287;51.644;8.494;2022-07-03T07:24:33;4.53;;;1.30;;
16354;SDS011;8287;51.644;8.494;2022-07-03T07:27:00;1.23;;;1.10;;
16354;SDS011;8287;51.644;8.494;2022-07-03T07:29:27;1.15;;;0.82;;
16354;SDS011;8287;51.644;8.494;2022-07-03T07:31:54;0.80;;;0.80;;
16354;SDS011;8287;51.644;8.494;2022-07-03T07:34:22;1.83;;;1.10;;
16354;SDS011;8287;51.644;8.494;2022-07-03T07:36:48;1.48;;;0.90;;
16354;SDS011;8287;51.644;8.494;2022-07-03T07:39:15;2.40;;;0.90;;
16354;SDS011;8287;51.644;8.494;2022-07-03T07:41:41;0.73;;;0.73;;
16354;SDS011;8287;51.644;8.494;2022-07-03T07:44:08;0.90;;;0.88;;
16354;SDS011;8287;51.644;8.494;2022-07-03T07:46:34;2.72;;;1.00;;
16354;SDS011;8287;51.644;8.494;2022-07-03T07:49:01;1.38;;;1.15;;
16354;SDS011;8287;51.644;8.494;2022-07-03T07:51:29;1.20;;;1.10;;
16354;SDS011;8287;51.644;8.494;2022-07-03T07:53:56;3.45;;;1.10;;
16354;SDS011;8287;51.644;8.494;2022-07-03T07:56:24;0.60;;;0.60;;
16354;SDS011;8287;51.644;8.494;2022-07-03T07:58:51;2.03;;;1.05;;
16354;SDS011;8287;51.644;8.494;2022-07-03T08:01:17;0.55;;;0.50;;
16354;SDS011;8287;51.644;8.494;2022-07-03T08:04:02;3.40;;;0.80;;
16354;SDS011;8287;51.644;8.494;2022-07-03T08:06:47;1.40;;;0.85;;
16354;SDS011;8287;51.644;8.494;2022-07-03T08:09:15;3.00;;;0.80;;
16354;SDS011;8287;51.644;8.494;2022-07-03T08:11:41;2.97;;;0.95;;
16354;SDS011;8287;51.644;8.494;2022-07-03T08:14:08;0.90;;;0.80;;
16354;SDS011;8287;51.644;8.494;2022-07-03T08:16:35;0.80;;;0.80;;
16354;SDS011;8287;51.644;8.494;2022-07-03T08:19:04;0.75;;;0.70;;
16354;SDS011;8287;51.644;8.494;2022-07-03T08:21:30;0.80;;;0.70;;
16354;SDS011;8287;51.644;8.494;2022-07-03T08:24:00;1.02;;;0.75;;
16354;SDS011;8287;51.644;8.494;2022-07-03T08:26:26;0.98;;;0.60;;
16354;SDS011;8287;51.644;8.494;2022-07-03T08:28:53;1.10;;;0.68;;
16354;SDS011;8287;51.644;8.494;2022-07-03T08:31:20;1.10;;;0.70;;
16354;SDS011;8287;51.644;8.494;2022-07-03T08:33:46;1.33;;;0.50;;
16354;SDS011;8287;51.644;8.494;2022-07-03T08:36:13;2.85;;;0.77;;
16354;SDS011;8287;51.644;8.494;2022-07-03T08:38:39;1.65;;;0.32;;
16354;SDS011;8287;51.644;8.494;2022-07-03T08:41:07;0.52;;;0.50;;
16354;SDS011;8287;51.644;8.494;2022-07-03T08:43:35;0.70;;;0.50;;
16354;SDS011;8287;51.644;8.494;2022-07-03T08:46:05;1.05;;;0.45;;
16354;SDS011;8287;51.644;8.494;2022-07-03T08:48:36;2.33;;;0.52;;
16354;SDS011;8287;51.644;8.494;2022-07-03T08:51:03;1.15;;;0.82;;
16354;SDS011;8287;51.644;8.494;2022-07-03T08:53:30;1.38;;;1.02;;
16354;SDS011;8287;51.644;8.494;2022-07-03T08:55:58;2.58;;;1.00;;
16354;SDS011;8287;51.644;8.494;2022-07-03T08:58:31;2.67;;;0.73;;
16354;SDS011;8287;51.644;8.494;2022-07-03T09:00:58;1.40;;;0.63;;
16354;SDS011;8287;51.644;8.494;2022-07-03T09:03:25;0.75;;;0.50;;
16354;SDS011;8287;51.644;8.494;2022-07-03T09:05:52;0.75;;;0.75;;
16354;SDS011;8287;51.644;8.494;2022-07-03T09:08:19;2.65;;;0.60;;
16354;SDS011;8287;51.644;8.494;2022-07-03T09:10:49;2.45;;;0.73;;
16354;SDS011;8287;51.644;8.494;2022-07-03T09:13:15;2.05;;;0.73;;
16354;SDS011;8287;51.644;8.494;2022-07-03T09:15:44;0.40;;;0.40;;
16354;SDS011;8287;51.644;8.494;2022-07-03T09:18:10;3.60;;;0.65;;
16354;SDS011;8287;51.644;8.494;2022-07-03T09:20:38;1.95;;;0.63;;
16354;SDS011;8287;51.644;8.494;2022-07-03T09:23:10;0.70;;;0.70;;
16354;SDS011;8287;51.644;8.494;2022-07-03T09:25:53;2.33;;;0.73;;
16354;SDS011;8287;51.644;8.494;2022-07-03T09:28:22;4.47;;;0.65;;
16354;SDS011;8287;51.644;8.494;2022-07-03T09:31:00;1.33;;;1.10;;
16354;SDS011;8287;51.644;8.494;2022-07-03T09:33:28;0.88;;;0.65;;
16354;SDS011;8287;51.644;8.494;2022-07-03T09:35:55;0.98;;;0.60;;
16354;SDS011;8287;51.644;8.494;2022-07-03T09:38:22;1.38;;;0.50;;
16354;SDS011;8287;51.644;8.494;2022-07-03T09:40:50;1.13;;;0.60;;
16354;SDS011;8287;51.644;8.494;2022-07-03T09:43:21;0.45;;;0.38;;
16354;SDS011;8287;51.644;8.494;2022-07-03T09:45:51;1.17;;;0.40;;
16354;SDS011;8287;51.644;8.494;2022-07-03T09:48:24;1.85;;;0.30;;
16354;SDS011;8287;51.644;8.494;2022-07-03T09:51:08;1.08;;;0.60;;
16354;SDS011;8287;51.644;8.494;2022-07-03T09:53:56;0.52;;;0.52;;
16354;SDS011;8287;51.644;8.494;2022-07-03T09:56:24;4.80;;;0.60;;
16354;SDS011;8287;51.644;8.494;2022-07-03T09:58:59;0.52;;;0.40;;
16354;SDS011;8287;51.644;8.494;2022-07-03T10:01:26;1.17;;;0.65;;
16354;SDS011;8287;51.644;8.494;2022-07-03T10:03:56;3.88;;;1.23;;
16354;SDS011;8287;51.644;8.494;2022-07-03T10:06:45;4.00;;;0.68;;
16354;SDS011;8287;51.644;8.494;2022-07-03T10:09:19;1.27;;;0.77;;
16354;SDS011;8287;51.644;8.494;2022-07-03T10:11:58;4.30;;;0.68;;
16354;SDS011;8287;51.644;8.494;2022-07-03T10:14:26;1.08;;;0.50;;
16354;SDS011;8287;51.644;8.494;2022-07-03T10:16:54;2.08;;;0.45;;
16354;SDS011;8287;51.644;8.494;2022-07-03T10:19:25;2.47;;;0.82;;
16354;SDS011;8287;51.644;8.494;2022-07-03T10:21:54;0.90;;;0.40;;
16354;SDS011;8287;51.644;8.494;2022-07-03T10:24:22;0.30;;;0.30;;
16354;SDS011;8287;51.644;8.494;2022-07-03T10:26:50;1.90;;;0.57;;
16354;SDS011;8287;51.644;8.494;2022-07-03T10:29:17;2.55;;;0.70;;
16354;SDS011;8287;51.644;8.494;2022-07-03T10:31:47;1.33;;;0.50;;
16354;SDS011;8287;51.644;8.494;2022-07-03T10:34:17;0.57;;;0.57;;
16354;SDS011;8287;51.644;8.494;2022-07-03T10:36:48;1.50;;;0.80;;
16354;SDS011;8287;51.644;8.494;2022-07-03T10:39:20;1.85;;;0.60;;
16354;SDS011;8287;51.644;8.494;2022-07-03T10:41:56;1.17;;;0.70;;
16354;SDS011;8287;51.644;8.494;2022-07-03T10:44:55;2.47;;;0.38;;
16354;SDS011;8287;51.644;8.494;2022-07-03T10:47:42;0.73;;;0.63;;
16354;SDS011;8287;51.644;8.494;2022-07-03T10:50:10;1.83;;;0.47;;
16354;SDS011;8287;51.644;8.494;2022-07-03T10:52:40;0.68;;;0.40;;
16354;SDS011;8287;51.644;8.494;2022-07-03T10:55:07;0.32;;;0.20;;
16354;SDS011;8287;51.644;8.494;2022-07-03T10:57:35;3.15;;;0.77;;
16354;SDS011;8287;51.644;8.494;2022-07-03T11:00:07;1.60;;;0.50;;
16354;SDS011;8287;51.644;8.494;2022-07-03T11:02:43;0.80;;;0.70;;
16354;SDS011;8287;51.644;8.494;2022-07-03T11:05:13;1.23;;;0.68;;
16354;SDS011;8287;51.644;8.494;2022-07-03T11:10:46;1.17;;;0.55;;
16354;SDS011;8287;51.644;8.494;2022-07-03T11:13:32;1.33;;;0.80;;
16354;SDS011;8287;51.644;8.494;2022-07-03T11:15:59;1.75;;;0.68;;
16354;SDS011;8287;51.644;8.494;2022-07-03T11:18:27;1.67;;;0.43;;
16354;SDS011;8287;51.644;8.494;2022-07-03T11:24:01;0.57;;;0.50;;
16354;SDS011;8287;51.644;8.494;2022-07-03T11:26:37;0.80;;;0.45;;
16354;SDS011;8287;51.644;8.494;2022-07-03T11:29:04;1.55;;;0.30;;
16354;SDS011;8287;51.644;8.494;2022-07-03T11:31:30;1.42;;;0.63;;
16354;SDS011;8287;51.644;8.494;2022-07-03T11:33:57;1.42;;;0.65;;
16354;SDS011;8287;51.644;8.494;2022-07-03T11:36:26;1.30;;;0.93;;
16354;SDS011;8287;51.644;8.494;2022-07-03T11:39:03;2.42;;;0.80;;
16354;SDS011;8287;51.644;8.494;2022-07-03T11:41:42;0.80;;;0.80;;
16354;SDS011;8287;51.644;8.494;2022-07-03T11:44:13;3.15;;;0.80;;
16354;SDS011;8287;51.644;8.494;2022-07-03T11:46:41;2.95;;;0.60;;
16354;SDS011;8287;51.644;8.494;2022-07-03T11:49:14;0.45;;;0.40;;
16354;SDS011;8287;51.644;8.494;2022-07-03T11:51:42;5.82;;;0.60;;
16354;SDS011;8287;51.644;8.494;2022-07-03T11:54:21;0.60;;;0.60;;
16354;SDS011;8287;51.644;8.494;2022-07-03T11:56:47;0.70;;;0.70;;
16354;SDS011;8287;51.644;8.494;2022-07-03T11:59:14;2.53;;;0.80;;
16354;SDS011;8287;51.644;8.494;2022-07-03T12:01:41;2.65;;;0.70;;
16354;SDS011;8287;51.644;8.494;2022-07-03T12:04:08;1.30;;;0.77;;
16354;SDS011;8287;51.644;8.494;2022-07-03T12:06:38;0.93;;;0.70;;
16354;SDS011;8287;51.644;8.494;2022-07-03T12:09:13;2.15;;;0.90;;
16354;SDS011;8287;51.644;8.494;2022-07-03T12:11:44;1.58;;;0.73;;
16354;SDS011;8287;51.644;8.494;2022-07-03T12:14:32;0.65;;;0.65;;
16354;SDS011;8287;51.644;8.494;2022-07-03T12:17:00;1.38;;;0.70;;
16354;SDS011;8287;51.644;8.494;2022-07-03T12:19:26;1.15;;;0.70;;
16354;SDS011;8287;51.644;8.494;2022-07-03T12:21:53;1.83;;;1.08;;
16354;SDS011;8287;51.644;8.494;2022-07-03T12:24:20;0.60;;;0.50;;
16354;SDS011;8287;51.644;8.494;2022-07-03T12:26:48;0.75;;;0.70;;
16354;SDS011;8287;51.644;8.494;2022-07-03T12:29:15;0.82;;;0.60;;
16354;SDS011;8287;51.644;8.494;2022-07-03T12:31:43;1.48;;;1.00;;
16354;SDS011;8287;51.644;8.494;2022-07-03T12:34:12;1.42;;;0.80;;
16354;SDS011;8287;51.644;8.494;2022-07-03T12:36:40;0.93;;;0.70;;
16354;SDS011;8287;51.644;8.494;2022-07-03T12:39:19;0.82;;;0.70;;
16354;SDS011;8287;51.644;8.494;2022-07-03T12:41:46;1.27;;;0.60;;
16354;SDS011;8287;51.644;8.494;2022-07-03T12:44:14;0.50;;;0.50;;
16354;SDS011;8287;51.644;8.494;2022-07-03T12:46:45;2.85;;;0.80;;
16354;SDS011;8287;51.644;8.494;2022-07-03T12:49:13;0.93;;;0.93;;
16354;SDS011;8287;51.644;8.494;2022-07-03T12:51:41;1.15;;;0.70;;
16354;SDS011;8287;51.644;8.494;2022-07-03T12:54:10;2.85;;;0.50;;
16354;SDS011;8287;51.644;8.494;2022-07-03T12:56:37;0.80;;;0.80;;
16354;SDS011;8287;51.644;8.494;2022-07-03T12:59:04;0.90;;;0.70;;
16354;SDS011;8287;51.644;8.494;2022-07-03T13:01:43;0.57;;;0.57;;
16354;SDS011;8287;51.644;8.494;2022-07-03T13:04:11;2.85;;;0.73;;
16354;SDS011;8287;51.644;8.494;2022-07-03T13:06:43;1.05;;;0.50;;
16354;SDS011;8287;51.644;8.494;2022-07-03T13:09:10;1.70;;;0.90;;
16354;SDS011;8287;51.644;8.494;2022-07-03T13:11:37;1.10;;;0.70;;
16354;SDS011;8287;51.644;8.494;2022-07-03T13:14:09;1.30;;;0.60;;
16354;SDS011;8287;51.644;8.494;2022-07-03T13:16:41;0.95;;;0.70;;
16354;SDS011;8287;51.644;8.494;2022-07-03T13:19:11;1.30;;;0.98;;
16354;SDS011;8287;51.644;8.494;2022-07-03T13:21:38;1.00;;;0.90;;
16354;SDS011;8287;51.644;8.494;2022-07-03T13:24:06;0.95;;;0.70;;
16354;SDS011;8287;51.644;8.494;2022-07-03T13:26:33;2.35;;;1.27;;
16354;SDS011;8287;51.644;8.494;2022-07-03T13:29:00;2.88;;;1.42;;
16354;SDS011;8287;51.644;8.494;2022-07-03T13:31:27;1.23;;;0.80;;
16354;SDS011;8287;51.644;8.494;2022-07-03T13:33:55;3.08;;;1.10;;
16354;SDS011;8287;51.644;8.494;2022-07-03T13:36:22;1.48;;;0.93;;
16354;SDS011;8287;51.644;8.494;2022-07-03T13:38:49;1.40;;;1.08;;
16354;SDS011;8287;51.644;8.494;2022-07-03T13:41:15;2.22;;;0.93;;
16354;SDS011;8287;51.644;8.494;2022-07-03T13:43:44;0.90;;;0.77;;
16354;SDS011;8287;51.644;8.494;2022-07-03T13:46:10;1.05;;;0.80;;
16354;SDS011;8287;51.644;8.494;2022-07-03T13:48:37;0.88;;;0.80;;
16354;SDS011;8287;51.644;8.494;2022-07-03T13:51:05;2.88;;;0.88;;
16354;SDS011;8287;51.644;8.494;2022-07-03T13:53:32;0.80;;;0.80;;
16354;SDS011;8287;51.644;8.494;2022-07-03T13:55:59;1.95;;;0.88;;
16354;SDS011;8287;51.644;8.494;2022-07-03T13:58:26;1.83;;;0.77;;
16354;SDS011;8287;51.644;8.494;2022-07-03T14:00:53;2.03;;;0.82;;
16354;SDS011;8287;51.644;8.494;2022-07-03T14:03:20;1.00;;;1.00;;
16354;SDS011;8287;51.644;8.494;2022-07-03T14:05:47;1.67;;;1.08;;
16354;SDS011;8287;51.644;8.494;2022-07-03T14:08:17;0.75;;;0.68;;
16354;SDS011;8287;51.644;8.494;2022-07-03T14:10:44;3.17;;;1.10;;
16354;SDS011;8287;51.644;8.494;2022-07-03T14:13:11;1.67;;;0.98;;
16354;SDS011;8287;51.644;8.494;2022-07-03T14:15:37;1.08;;;0.80;;
16354;SDS011;8287;51.644;8.494;2022-07-03T14:18:04;2.17;;;1.13;;
16354;SDS011;8287;51.644;8.494;2022-07-03T14:20:31;2.70;;;1.08;;
16354;SDS011;8287;51.644;8.494;2022-07-03T14:22:58;1.13;;;1.02;;
16354;SDS011;8287;51.644;8.494;2022-07-03T14:25:25;0.93;;;0.68;;
16354;SDS011;8287;51.644;8.494;2022-07-03T14:27:52;1.10;;;1.00;;
16354;SDS011;8287;51.644;8.494;2022-07-03T14:30:36;2.08;;;0.80;;
16354;SDS011;8287;51.644;8.494;2022-07-03T14:33:20;1.60;;;0.57;;
16354;SDS011;8287;51.644;8.494;2022-07-03T14:35:47;0.80;;;0.80;;
16354;SDS011;8287;51.644;8.494;2022-07-03T14:38:13;1.08;;;0.98;;
16354;SDS011;8287;51.644;8.494;2022-07-03T14:40:42;1.13;;;0.80;;
16354;SDS011;8287;51.644;8.494;2022-07-03T14:43:08;2.85;;;0.70;;
16354;SDS011;8287;51.644;8.494;2022-07-03T14:45:35;2.25;;;0.70;;
16354;SDS011;8287;51.644;8.494;2022-07-03T14:48:02;0.77;;;0.77;;
16354;SDS011;8287;51.644;8.494;2022-07-03T14:50:28;1.15;;;0.77;;
16354;SDS011;8287;51.644;8.494;2022-07-03T14:52:55;1.25;;;0.73;;
16354;SDS011;8287;51.644;8.494;2022-07-03T14:55:22;2.15;;;0.80;;
16354;SDS011;8287;51.644;8.494;2022-07-03T14:58:01;0.70;;;0.70;;
16354;SDS011;8287;51.644;8.494;2022-07-03T15:00:30;1.35;;;1.00;;
16354;SDS011;8287;51.644;8.494;2022-07-03T15:03:03;1.73;;;0.75;;
16354;SDS011;8287;51.644;8.494;2022-07-03T15:05:32;1.02;;;0.80;;
16354;SDS011;8287;51.644;8.494;2022-07-03T15:08:03;1.17;;;0.70;;
16354;SDS011;8287;51.644;8.494;2022-07-03T15:10:31;1.88;;;0.80;;
16354;SDS011;8287;51.644;8.494;2022-07-03T15:13:00;1.80;;;0.95;;
16354;SDS011;8287;51.644;8.494;2022-07-03T15:15:29;1.08;;;0.82;;
16354;SDS011;8287;51.644;8.494;2022-07-03T15:17:58;3.42;;;1.17;;
16354;SDS011;8287;51.644;8.494;2022-07-03T15:20:26;0.60;;;0.60;;